createdAt,value
2023-03-07T00:01:55.627Z,62.13
2023-03-07T00:04:27.596Z,62.15
2023-03-07T00:06:59.529Z,61.63
2023-03-07T00:09:31.533Z,61.82
2023-03-07T00:12:04.442Z,61.95
2023-03-07T00:14:37.323Z,62.20
2023-03-07T00:17:09.781Z,62.21
2023-03-07T00:19:44.209Z,62.47
2023-03-07T00:22:16.525Z,62.07
2023-03-07T00:24:49.748Z,62.39
2023-03-07T00:27:21.865Z,62.52
2023-03-07T00:29:53.990Z,62.85
2023-03-07T00:32:27.123Z,63.04
2023-03-07T00:35:00.655Z,63.12
2023-03-07T00:37:32.926Z,63.02
2023-03-07T00:40:07.007Z,63.12
2023-03-07T00:42:38.328Z,63.14
2023-03-07T00:45:27.843Z,63.08
2023-03-07T00:48:00.101Z,63.11
2023-03-07T00:50:32.122Z,63.31
2023-03-07T00:53:04.167Z,63.30
2023-03-07T00:55:36.343Z,63.42
2023-03-07T00:58:08.337Z,63.70
2023-03-07T01:00:40.442Z,64.03
2023-03-07T01:03:12.548Z,64.25
2023-03-07T01:05:44.618Z,64.50
2023-03-07T01:08:17.224Z,64.94
2023-03-07T01:10:49.687Z,65.21
2023-03-07T01:13:21.881Z,65.76
2023-03-07T01:15:54.076Z,65.98
2023-03-07T01:18:26.106Z,66.42
2023-03-07T01:20:57.919Z,66.73
2023-03-07T01:23:29.988Z,67.05
2023-03-07T01:26:02.232Z,67.54
2023-03-07T01:28:34.172Z,67.60
2023-03-07T01:31:06.919Z,67.79
2023-03-07T01:33:42.258Z,67.69
2023-03-07T01:36:20.071Z,67.54
2023-03-07T01:38:58.028Z,67.58
2023-03-07T01:41:32.511Z,67.44
2023-03-07T01:44:08.928Z,67.37
2023-03-07T01:46:43.939Z,67.40
2023-03-07T01:49:31.755Z,67.61
2023-03-07T01:52:20.260Z,67.73
2023-03-07T01:55:03.392Z,67.79
2023-03-07T01:57:39.322Z,67.98
2023-03-07T02:00:16.257Z,68.10
2023-03-07T02:02:51.149Z,67.90
2023-03-07T02:05:26.748Z,67.49
2023-03-07T02:08:02.390Z,67.15
2023-03-07T02:10:37.428Z,67.03
2023-03-07T02:13:08.734Z,66.81
2023-03-07T02:15:41.798Z,66.67
2023-03-07T02:18:17.118Z,66.38
2023-03-07T02:20:57.682Z,66.69
2023-03-07T02:23:35.934Z,66.84
2023-03-07T02:26:12.873Z,66.93
2023-03-07T02:28:47.045Z,66.81
2023-03-07T02:31:19.650Z,67.02
2023-03-07T02:33:51.989Z,66.90
2023-03-07T02:36:27.015Z,66.83
2023-03-07T02:39:03.168Z,67.04
2023-03-07T02:41:37.596Z,67.15
2023-03-07T02:44:11.301Z,66.66
2023-03-07T02:46:43.441Z,67.00
2023-03-07T02:49:16.407Z,66.77
2023-03-07T02:51:48.620Z,66.75
2023-03-07T02:54:20.785Z,66.89
2023-03-07T02:56:53.553Z,66.82
2023-03-07T02:59:25.720Z,66.33
2023-03-07T03:01:59.202Z,66.06
2023-03-07T03:04:31.380Z,66.00
2023-03-07T03:07:03.655Z,66.06
2023-03-07T03:09:35.851Z,66.06
2023-03-07T03:12:08.559Z,66.32
2023-03-07T03:14:41.516Z,66.52
2023-03-07T03:17:13.438Z,66.76
2023-03-07T03:19:46.208Z,66.77
2023-03-07T03:22:19.013Z,66.91
2023-03-07T03:24:51.907Z,67.18
2023-03-07T03:27:24.494Z,67.26
2023-03-07T03:29:56.726Z,67.33
2023-03-07T03:32:29.245Z,67.11
2023-03-07T03:35:01.707Z,67.02
2023-03-07T03:37:34.681Z,67.04
2023-03-07T03:40:11.092Z,66.56
2023-03-07T03:42:44.869Z,66.46
2023-03-07T03:45:18.115Z,66.17
2023-03-07T03:47:51.274Z,66.09
2023-03-07T03:50:23.436Z,65.91
2023-03-07T03:52:55.634Z,66.16
2023-03-07T03:55:27.846Z,66.33
2023-03-07T03:58:00.652Z,66.53
2023-03-07T04:00:33.391Z,66.66
2023-03-07T04:03:05.561Z,66.57
2023-03-07T04:05:38.125Z,66.73
2023-03-07T04:08:10.443Z,66.89
2023-03-07T04:10:43.027Z,66.81
2023-03-07T04:13:15.233Z,66.90
2023-03-07T04:15:47.729Z,66.95
2023-03-07T04:18:20.942Z,66.83
2023-03-07T04:20:53.914Z,66.83
2023-03-07T04:23:26.856Z,66.59
2023-03-07T04:26:02.051Z,66.41
2023-03-07T04:28:49.557Z,66.49
2023-03-07T04:31:29.184Z,66.87
2023-03-07T04:34:03.209Z,66.75
2023-03-07T04:36:35.956Z,66.53
2023-03-07T04:39:08.701Z,66.86
2023-03-07T04:41:41.171Z,66.67
2023-03-07T04:44:18.051Z,66.60
2023-03-07T04:46:51.617Z,66.47
2023-03-07T04:49:24.144Z,66.33
2023-03-07T04:51:56.590Z,66.38
2023-03-07T04:54:29.135Z,66.46
2023-03-07T04:57:04.032Z,66.89
2023-03-07T04:59:39.043Z,66.26
2023-03-07T05:02:14.659Z,65.19
2023-03-07T05:04:47.853Z,64.51
2023-03-07T05:07:20.449Z,65.78
2023-03-07T05:09:55.001Z,65.14
2023-03-07T05:12:27.955Z,65.29
2023-03-07T05:15:02.165Z,65.38
2023-03-07T05:17:35.428Z,65.43
2023-03-07T05:20:10.753Z,64.75
2023-03-07T05:22:44.712Z,64.36
2023-03-07T05:25:18.000Z,63.64
2023-03-07T05:27:50.821Z,64.12
2023-03-07T05:30:22.827Z,64.14
2023-03-07T05:32:55.211Z,62.90
2023-03-07T05:35:27.775Z,63.28
2023-03-07T05:38:01.667Z,63.10
2023-03-07T05:40:35.615Z,62.71
2023-03-07T05:43:09.294Z,62.63
2023-03-07T05:45:42.549Z,62.28
2023-03-07T05:48:15.023Z,61.87
2023-03-07T05:50:47.489Z,62.03
2023-03-07T05:53:21.950Z,62.88
2023-03-07T05:55:55.270Z,62.76
2023-03-07T05:58:28.935Z,62.11
2023-03-07T06:01:03.982Z,62.12
2023-03-07T06:03:36.769Z,61.61
2023-03-07T06:06:12.935Z,60.90
2023-03-07T06:08:46.296Z,60.08
2023-03-07T06:11:19.241Z,60.07
2023-03-07T06:13:51.479Z,59.61
2023-03-07T06:16:25.020Z,59.41
2023-03-07T06:18:57.765Z,59.39
2023-03-07T06:21:30.633Z,59.71
2023-03-07T06:24:03.421Z,59.30
2023-03-07T06:26:35.943Z,59.77
2023-03-07T06:29:08.603Z,60.58
2023-03-07T06:31:41.287Z,60.52
2023-03-07T06:34:14.007Z,58.44
2023-03-07T06:36:48.277Z,58.67
2023-03-07T06:39:22.530Z,58.39
2023-03-07T06:41:56.326Z,57.39
2023-03-07T06:44:28.936Z,56.27
2023-03-07T06:47:01.258Z,56.46
2023-03-07T06:49:34.270Z,56.77
2023-03-07T06:52:06.815Z,55.91
2023-03-07T06:54:39.260Z,55.68
2023-03-07T06:57:11.595Z,56.01
2023-03-07T06:59:44.587Z,56.06
2023-03-07T07:02:17.166Z,56.10
2023-03-07T07:04:49.770Z,56.73
2023-03-07T07:07:23.059Z,57.01
2023-03-07T07:09:58.099Z,56.97
2023-03-07T07:12:31.982Z,56.83
2023-03-07T07:15:05.863Z,57.94
2023-03-07T07:17:41.892Z,58.51
2023-03-07T07:20:14.663Z,58.51
2023-03-07T07:22:47.693Z,57.54
2023-03-07T07:25:19.953Z,56.04
2023-03-07T07:27:52.693Z,55.76
2023-03-07T07:30:25.174Z,55.91
2023-03-07T07:32:57.684Z,55.40
2023-03-07T07:35:30.711Z,55.33
2023-03-07T07:38:03.908Z,55.10
2023-03-07T07:40:36.587Z,54.99
2023-03-07T07:43:18.742Z,54.52
2023-03-07T07:45:53.073Z,54.51
2023-03-07T07:48:25.900Z,53.95
2023-03-07T07:51:06.068Z,53.63
2023-03-07T07:53:40.576Z,53.05
2023-03-07T07:56:15.641Z,53.21
2023-03-07T07:58:48.629Z,52.63
2023-03-07T08:01:26.836Z,52.60
2023-03-07T08:04:02.786Z,52.63
2023-03-07T08:06:35.028Z,53.03
2023-03-07T08:09:07.612Z,52.84
2023-03-07T08:11:39.832Z,53.53
2023-03-07T08:14:12.643Z,54.25
2023-03-07T08:16:45.403Z,54.30
2023-03-07T08:19:17.915Z,54.69
2023-03-07T08:21:50.386Z,55.30
2023-03-07T08:24:29.385Z,55.19
2023-03-07T08:26:56.390Z,54.83
2023-03-07T08:29:29.475Z,55.09
2023-03-07T08:32:02.468Z,55.22
2023-03-07T08:34:35.364Z,55.13
2023-03-07T08:37:07.715Z,55.71
2023-03-07T08:39:39.799Z,55.42
2023-03-07T08:42:12.014Z,55.30
2023-03-07T08:44:44.778Z,55.66
2023-03-07T08:47:16.714Z,54.75
2023-03-07T08:49:49.680Z,55.01
2023-03-07T08:52:34.788Z,55.51
2023-03-07T08:55:08.422Z,55.69
2023-03-07T08:57:41.985Z,54.78
2023-03-07T09:00:15.645Z,54.29
2023-03-07T09:02:49.044Z,54.06
2023-03-07T09:05:21.454Z,53.90
2023-03-07T09:07:55.098Z,54.64
2023-03-07T09:10:27.910Z,54.67
2023-03-07T09:13:00.364Z,55.14
2023-03-07T09:15:32.891Z,54.67
2023-03-07T09:18:05.916Z,54.72
2023-03-07T09:20:40.125Z,54.23
2023-03-07T09:23:12.343Z,53.54
2023-03-07T09:25:46.347Z,53.52
2023-03-07T09:28:19.067Z,54.12
2023-03-07T09:30:51.360Z,53.96
2023-03-07T09:33:24.175Z,53.37
2023-03-07T09:35:56.944Z,53.17
2023-03-07T09:38:30.067Z,53.03
2023-03-07T09:41:22.019Z,51.73
2023-03-07T09:44:03.717Z,51.66
2023-03-07T09:46:58.713Z,51.00
2023-03-07T09:49:35.032Z,50.69
2023-03-07T09:52:10.609Z,51.84
2023-03-07T09:54:48.445Z,49.60
2023-03-07T09:57:31.038Z,49.34
2023-03-07T10:00:06.306Z,49.17
2023-03-07T10:02:46.024Z,49.52
2023-03-07T10:05:33.132Z,49.90
2023-03-07T10:08:11.907Z,50.28
2023-03-07T10:11:13.519Z,50.34
2023-03-07T10:14:08.093Z,49.96
2023-03-07T10:16:49.628Z,49.44
2023-03-07T10:19:40.085Z,49.91
2023-03-07T10:22:18.743Z,49.41
2023-03-07T10:25:02.886Z,47.77
2023-03-07T10:27:35.379Z,47.01
2023-03-07T10:30:13.591Z,46.54
2023-03-07T10:32:49.101Z,46.70
2023-03-07T10:35:27.024Z,47.08
2023-03-07T10:38:19.810Z,46.25
2023-03-07T10:40:57.737Z,45.99
2023-03-07T10:43:33.113Z,46.22
2023-03-07T10:46:25.067Z,44.69
2023-03-07T10:48:54.038Z,45.46
2023-03-07T10:51:41.282Z,45.72
2023-03-07T10:54:21.997Z,46.45
2023-03-07T10:57:17.606Z,45.94
2023-03-07T10:59:52.021Z,46.11
2023-03-07T11:02:33.631Z,44.56
2023-03-07T11:05:18.055Z,44.04
2023-03-07T11:07:50.219Z,43.85
2023-03-07T11:10:40.597Z,43.46
2023-03-07T11:13:21.471Z,43.07
2023-03-07T11:16:10.607Z,42.46
2023-03-07T11:18:41.616Z,42.71
2023-03-07T11:21:31.572Z,41.58
2023-03-07T11:24:08.125Z,42.32
2023-03-07T11:26:42.480Z,42.28
2023-03-07T11:29:16.515Z,41.59
2023-03-07T11:31:56.271Z,41.49
2023-03-07T11:34:40.333Z,41.69
2023-03-07T11:37:15.718Z,40.69
2023-03-07T11:39:56.596Z,41.73
2023-03-07T11:42:38.184Z,41.39
2023-03-07T11:45:33.620Z,41.00
2023-03-07T11:48:30.070Z,41.81
2023-03-07T11:51:05.012Z,41.30
2023-03-07T11:53:49.688Z,41.03
2023-03-07T11:56:25.162Z,41.17
2023-03-07T11:59:14.867Z,41.58
2023-03-07T12:02:02.761Z,40.74
2023-03-07T12:04:56.527Z,41.73
2023-03-07T12:07:48.869Z,40.87
2023-03-07T12:10:27.018Z,40.45
2023-03-07T12:13:32.205Z,40.30
2023-03-07T12:16:19.944Z,40.23
2023-03-07T12:19:07.993Z,41.13
2023-03-07T12:21:59.520Z,41.54
2023-03-07T12:24:37.523Z,40.64
2023-03-07T12:27:15.713Z,40.81
2023-03-07T12:29:58.209Z,41.06
2023-03-07T12:32:34.734Z,39.87
2023-03-07T12:35:28.521Z,39.90
2023-03-07T12:38:08.050Z,39.43
2023-03-07T12:40:43.764Z,39.55
2023-03-07T12:43:30.638Z,41.33
2023-03-07T12:46:17.710Z,41.96
2023-03-07T12:49:02.080Z,40.75
2023-03-07T12:51:42.964Z,40.31
2023-03-07T12:54:18.005Z,41.10
2023-03-07T12:56:55.910Z,41.23
2023-03-07T12:59:30.113Z,41.42
2023-03-07T13:02:08.595Z,42.16
2023-03-07T13:04:43.873Z,42.76
2023-03-07T13:07:33.948Z,42.76
2023-03-07T13:10:11.854Z,42.71
2023-03-07T13:12:45.521Z,42.41
2023-03-07T13:15:26.095Z,41.77
2023-03-07T13:18:01.364Z,41.88
2023-03-07T13:20:40.100Z,41.95
2023-03-07T13:23:24.893Z,41.88
2023-03-07T13:26:01.693Z,42.04
2023-03-07T13:28:41.648Z,42.17
2023-03-07T13:31:20.085Z,43.01
2023-03-07T13:33:53.075Z,42.13
2023-03-07T13:36:38.893Z,43.27
2023-03-07T13:39:38.943Z,43.56
2023-03-07T13:42:48.207Z,44.25
2023-03-07T13:45:42.912Z,45.07
2023-03-07T13:48:30.665Z,46.89
2023-03-07T13:51:06.175Z,47.51
2023-03-07T13:53:50.962Z,48.26
2023-03-07T13:56:29.916Z,48.78
2023-03-07T13:59:23.413Z,48.74
2023-03-07T14:02:04.736Z,49.62
2023-03-07T14:04:41.225Z,49.87
2023-03-07T14:07:20.987Z,50.80
2023-03-07T14:09:59.175Z,50.64
2023-03-07T14:12:57.006Z,50.74
2023-03-07T14:15:55.245Z,51.30
2023-03-07T14:18:52.385Z,50.93
2023-03-07T14:21:48.693Z,51.18
2023-03-07T14:24:30.429Z,51.75
2023-03-07T14:27:08.272Z,52.38
2023-03-07T14:29:52.236Z,52.31
2023-03-07T14:32:30.579Z,52.40
2023-03-07T14:35:03.309Z,52.97
2023-03-07T14:40:23.135Z,53.79
2023-03-07T14:43:16.711Z,53.73
2023-03-07T14:45:52.324Z,53.90
2023-03-07T14:48:33.527Z,54.28
2023-03-07T14:51:20.711Z,54.91
2023-03-07T14:53:53.226Z,55.29
2023-03-07T14:56:32.344Z,55.43
2023-03-07T14:59:06.317Z,55.81
2023-03-07T15:01:39.232Z,56.60
2023-03-07T15:04:32.172Z,55.43
2023-03-07T15:07:08.740Z,56.87
2023-03-07T15:09:41.314Z,57.30
2023-03-07T15:12:17.159Z,57.58
2023-03-07T15:14:52.345Z,57.51
2023-03-07T15:17:44.719Z,58.33
2023-03-07T15:20:22.320Z,58.84
2023-03-07T15:23:06.234Z,59.21
2023-03-07T15:25:39.154Z,59.40
2023-03-07T15:28:31.627Z,59.90
2023-03-07T15:31:05.823Z,60.42
2023-03-07T15:33:38.187Z,60.87
2023-03-07T15:36:19.003Z,61.28
2023-03-07T15:38:53.465Z,61.45
2023-03-07T15:41:36.241Z,61.58
2023-03-07T15:44:21.407Z,61.78
2023-03-07T15:46:56.510Z,62.76
2023-03-07T15:49:32.335Z,63.54
2023-03-07T15:52:05.516Z,63.74
2023-03-07T15:54:40.785Z,63.25
2023-03-07T15:57:25.234Z,64.03
2023-03-07T16:00:02.992Z,64.52
2023-03-07T16:02:39.137Z,64.90
2023-03-07T16:05:26.533Z,65.01
2023-03-07T16:07:59.804Z,65.36
2023-03-07T16:10:33.617Z,65.53
2023-03-07T16:13:06.361Z,65.71
2023-03-07T16:15:38.724Z,65.80
2023-03-07T16:18:13.073Z,66.30
2023-03-07T16:20:45.603Z,66.68
2023-03-07T16:23:17.684Z,67.01
2023-03-07T16:25:49.752Z,67.64
2023-03-07T16:28:22.285Z,67.87
2023-03-07T16:30:54.627Z,68.21
2023-03-07T16:33:27.376Z,68.49
2023-03-07T16:36:00.144Z,68.73
2023-03-07T16:38:32.409Z,68.76
2023-03-07T16:41:06.685Z,68.99
2023-03-07T16:43:38.868Z,69.12
2023-03-07T16:46:18.914Z,69.12
2023-03-07T16:48:50.950Z,69.01
2023-03-07T16:51:25.778Z,69.33
2023-03-07T16:53:59.363Z,69.33
2023-03-07T16:56:34.657Z,69.17
2023-03-07T16:59:08.570Z,69.24
2023-03-07T17:01:41.062Z,68.74
2023-03-07T17:04:13.497Z,69.59
2023-03-07T17:06:47.432Z,69.16
2023-03-07T17:09:19.417Z,69.91
2023-03-07T17:11:53.544Z,69.67
2023-03-07T17:14:25.821Z,70.42
2023-03-07T17:17:01.019Z,70.49
2023-03-07T17:19:34.464Z,70.53
2023-03-07T17:22:06.985Z,70.07
2023-03-07T17:24:40.355Z,70.19
2023-03-07T17:27:12.707Z,68.97
2023-03-07T17:29:52.428Z,69.66
2023-03-07T17:32:24.551Z,70.43
2023-03-07T17:34:56.733Z,70.29
2023-03-07T17:37:30.051Z,70.61
2023-03-07T17:40:02.218Z,70.67
2023-03-07T17:42:34.901Z,70.94
2023-03-07T17:45:08.945Z,71.65
2023-03-07T17:47:43.852Z,71.69
2023-03-07T17:50:16.670Z,71.98
2023-03-07T17:52:48.914Z,72.12
2023-03-07T17:55:22.617Z,72.36
2023-03-07T17:57:54.871Z,72.03
2023-03-07T18:00:29.212Z,72.39
2023-03-07T18:03:00.736Z,72.41
2023-03-07T18:05:32.910Z,72.54
2023-03-07T18:08:05.179Z,72.06
2023-03-07T18:10:37.444Z,71.82
2023-03-07T18:13:10.189Z,72.25
2023-03-07T18:15:44.786Z,72.15
2023-03-07T18:18:17.135Z,72.45
2023-03-07T18:21:00.943Z,72.41
2023-03-07T18:23:34.339Z,72.46
2023-03-07T18:26:11.675Z,72.75
2023-03-07T18:28:46.158Z,72.75
2023-03-07T18:31:22.052Z,72.28
2023-03-07T18:33:54.809Z,73.38
2023-03-07T18:36:27.727Z,73.24
2023-03-07T18:39:00.185Z,73.24
2023-03-07T18:41:32.677Z,73.24
2023-03-07T18:44:05.369Z,72.83
2023-03-07T18:46:38.594Z,72.40
2023-03-07T18:49:10.801Z,72.69
2023-03-07T18:51:44.596Z,72.93
2023-03-07T18:54:16.769Z,72.92
2023-03-07T18:56:48.888Z,72.82
2023-03-07T18:59:21.167Z,73.01
2023-03-07T19:01:53.239Z,73.41
2023-03-07T19:04:25.207Z,73.71
2023-03-07T19:06:58.219Z,73.92
2023-03-07T19:09:31.710Z,74.12
2023-03-07T19:12:03.760Z,74.20
2023-03-07T19:14:35.972Z,74.60
2023-03-07T19:17:07.789Z,74.78
2023-03-07T19:19:39.855Z,74.85
2023-03-07T19:22:12.642Z,75.16
2023-03-07T19:24:44.885Z,75.17
2023-03-07T19:27:17.228Z,75.00
2023-03-07T19:29:49.285Z,75.32
2023-03-07T19:32:21.448Z,75.70
2023-03-07T19:34:53.547Z,75.79
2023-03-07T19:37:25.760Z,76.28
2023-03-07T19:39:57.862Z,76.69
2023-03-07T19:42:29.820Z,76.81
2023-03-07T19:45:01.868Z,76.78
2023-03-07T19:47:34.127Z,76.81
2023-03-07T19:50:07.449Z,76.77
2023-03-07T19:52:39.537Z,76.81
2023-03-07T19:55:11.900Z,77.19
2023-03-07T19:57:44.151Z,77.39
2023-03-07T20:00:16.530Z,77.61
2023-03-07T20:02:48.925Z,77.64
2023-03-07T20:05:20.917Z,77.47
2023-03-07T20:07:53.006Z,77.76
2023-03-07T20:10:25.204Z,77.43
2023-03-07T20:12:57.357Z,77.05
2023-03-07T20:15:29.399Z,76.91
2023-03-07T20:18:03.603Z,76.97
2023-03-07T20:20:37.609Z,76.67
2023-03-07T20:23:10.380Z,76.20
2023-03-07T20:25:42.267Z,76.21
2023-03-07T20:28:14.238Z,76.62
2023-03-07T20:30:46.232Z,76.85
2023-03-07T20:33:18.118Z,77.05
2023-03-07T20:35:52.078Z,76.97
2023-03-07T20:38:24.265Z,77.17
2023-03-07T20:41:10.637Z,77.30
2023-03-07T20:43:43.134Z,77.50
2023-03-07T20:46:17.615Z,77.61
2023-03-07T20:48:52.149Z,77.63
2023-03-07T20:51:27.090Z,77.66
2023-03-07T20:54:07.870Z,77.57
2023-03-07T20:56:41.267Z,77.45
2023-03-07T20:59:16.649Z,77.60
2023-03-07T21:01:49.002Z,77.58
2023-03-07T21:04:21.332Z,77.60
2023-03-07T21:06:53.384Z,77.38
2023-03-07T21:09:25.537Z,77.71
2023-03-07T21:11:57.631Z,77.80
2023-03-07T21:14:29.779Z,77.51
2023-03-07T21:17:03.143Z,77.71
2023-03-07T21:19:35.130Z,77.62
2023-03-07T21:22:07.309Z,77.36
2023-03-07T21:24:39.227Z,77.26
2023-03-07T21:27:11.220Z,77.43
2023-03-07T21:29:43.797Z,77.62
2023-03-07T21:32:15.760Z,77.39
2023-03-07T21:34:48.089Z,77.52
2023-03-07T21:37:20.727Z,77.29
2023-03-07T21:39:52.677Z,77.40
2023-03-07T21:42:24.793Z,77.68
2023-03-07T21:44:56.889Z,77.70
2023-03-07T21:47:28.917Z,77.78
2023-03-07T21:50:01.343Z,77.78
2023-03-07T21:52:33.795Z,77.72
2023-03-07T21:55:06.088Z,77.56
2023-03-07T21:57:38.086Z,77.43
2023-03-07T22:00:10.887Z,77.67
2023-03-07T22:02:42.892Z,77.86
2023-03-07T22:05:15.245Z,77.92
2023-03-07T22:07:50.152Z,77.91
2023-03-07T22:10:22.223Z,78.00
2023-03-07T22:12:54.240Z,77.42
2023-03-07T22:15:26.325Z,77.48
2023-03-07T22:17:58.637Z,77.61
2023-03-07T22:20:30.875Z,77.49
2023-03-07T22:23:02.874Z,77.66
2023-03-07T22:25:35.628Z,77.64
2023-03-07T22:28:07.771Z,77.68
2023-03-07T22:30:39.763Z,77.67
2023-03-07T22:33:11.760Z,77.71
2023-03-07T22:35:44.063Z,77.70
2023-03-07T22:38:19.451Z,77.76
2023-03-07T22:40:52.181Z,77.76
2023-03-07T22:43:24.897Z,77.61
2023-03-07T22:45:57.699Z,77.75
2023-03-07T22:48:31.774Z,77.67
2023-03-07T22:51:05.007Z,77.66
2023-03-07T22:53:38.094Z,77.76
2023-03-07T22:56:19.283Z,77.55
2023-03-07T22:58:51.933Z,77.55
2023-03-07T23:01:29.761Z,77.76
2023-03-07T23:04:03.317Z,77.91
2023-03-07T23:06:37.096Z,77.91
2023-03-07T23:09:09.503Z,77.86
2023-03-07T23:11:43.332Z,77.38
2023-03-07T23:14:16.718Z,77.33
2023-03-07T23:16:49.351Z,77.26
2023-03-07T23:19:21.977Z,77.33
2023-03-07T23:21:54.514Z,77.30
2023-03-07T23:24:27.166Z,77.21
2023-03-07T23:26:59.921Z,77.23
2023-03-07T23:29:32.946Z,77.39
2023-03-07T23:32:05.879Z,77.24
2023-03-07T23:34:38.847Z,77.35
2023-03-07T23:37:11.636Z,77.45
2023-03-07T23:39:44.529Z,77.64
2023-03-07T23:42:18.772Z,77.59
2023-03-07T23:44:51.775Z,77.63
2023-03-07T23:47:24.404Z,77.64
2023-03-07T23:49:57.066Z,77.72
2023-03-07T23:52:29.666Z,77.65
2023-03-07T23:55:02.200Z,77.73
2023-03-07T23:57:34.947Z,77.65
